UAE22 YMML-YSSY
Flight info
| Callsign | UAE22 |
|---|---|
| Flight time | N/A |
| Altitude | 39000 |
| Route | DOSEL2/34 DOSEL Y59 RIVET |
| Aircraft | B77W/H-SDE1E2E3FGHIJ2J3J4J5M1RWXY/LB1D1 |
Departure
| Time | 2026-05-01 08:02 |
|---|---|
| Airport | Melbourne Airport (YMML) |
Arrival
| Time | N/A |
|---|---|
| Airport | Sydney Kingsford Smith International Airport (YSSY) |
| Time | Latitude | Longitude | Altitude | Speed | Heading |
|---|---|---|---|---|---|
| 2026-05-01 07:23 | -37.66741 | 144.84541 | 401 ft | 0 kts | 172° |
| 2026-05-01 07:49 | -37.66721 | 144.84537 | 400 ft | 4 kts | 172° |
| 2026-05-01 07:49 | -37.66696 | 144.84533 | 400 ft | 4 kts | 177° |
| 2026-05-01 07:50 | -37.66675 | 144.84535 | 401 ft | 4 kts | 211° |
| 2026-05-01 07:50 | -37.66656 | 144.84582 | 401 ft | 3 kts | 261° |
| 2026-05-01 07:50 | -37.66653 | 144.84610 | 400 ft | 4 kts | 261° |
| 2026-05-01 07:51 | -37.66650 | 144.84631 | 400 ft | 1 kts | 261° |
| 2026-05-01 07:55 | -37.66656 | 144.84584 | 405 ft | 7 kts | 261° |
| 2026-05-01 07:56 | -37.66685 | 144.84341 | 401 ft | 10 kts | 262° |
| 2026-05-01 07:56 | -37.66717 | 144.84193 | 399 ft | 8 kts | 210° |
| 2026-05-01 07:57 | -37.66784 | 144.84189 | 393 ft | 11 kts | 170° |
| 2026-05-01 07:57 | -37.66889 | 144.84212 | 394 ft | 5 kts | 172° |
| 2026-05-01 07:58 | -37.67153 | 144.84260 | 387 ft | 22 kts | 169° |
| 2026-05-01 07:58 | -37.67450 | 144.84316 | 381 ft | 21 kts | 172° |
| 2026-05-01 07:59 | -37.67724 | 144.84367 | 374 ft | 21 kts | 171° |
| 2026-05-01 07:59 | -37.67998 | 144.84418 | 363 ft | 20 kts | 171° |
| 2026-05-01 08:00 | -37.68521 | 144.84315 | 354 ft | 13 kts | 225° |
| 2026-05-01 08:01 | -37.68551 | 144.84232 | 352 ft | 8 kts | 260° |
| 2026-05-01 08:01 | -37.68552 | 144.84134 | 354 ft | 12 kts | 294° |
| 2026-05-01 08:01 | -37.68481 | 144.84083 | 357 ft | 12 kts | 350° |
| 2026-05-01 08:02 | -37.67610 | 144.83922 | 370 ft | 166 kts | 352° |
| 2026-05-01 08:02 | -37.66208 | 144.83647 | 1085 ft | 232 kts | 354° |
| 2026-05-01 08:03 | -37.62891 | 144.83120 | 4329 ft | 225 kts | 354° |
| 2026-05-01 08:03 | -37.61360 | 144.82884 | 5628 ft | 222 kts | 353° |
| 2026-05-01 08:03 | -37.57913 | 144.82854 | 5370 ft | 261 kts | 20° |
| 2026-05-01 08:04 | -37.55176 | 144.85696 | 5118 ft | 252 kts | 44° |
| 2026-05-01 08:04 | -37.52861 | 144.88959 | 5009 ft | 252 kts | 45° |
| 2026-05-01 08:05 | -37.50513 | 144.92273 | 5956 ft | 255 kts | 44° |
| 2026-05-01 08:05 | -37.49318 | 144.93952 | 7028 ft | 260 kts | 44° |
| 2026-05-01 08:05 | -37.48100 | 144.95660 | 8100 ft | 264 kts | 45° |
| 2026-05-01 08:06 | -37.45589 | 144.99171 | 10162 ft | 275 kts | 45° |
| 2026-05-01 08:06 | -37.43326 | 145.02321 | 11012 ft | 316 kts | 45° |
| 2026-05-01 08:07 | -37.39567 | 145.07549 | 12402 ft | 360 kts | 46° |